GW5388 Weather Reports


time (UTC)temp
F
wind
direction
speed
knots
gust
knots
rain 1hr
in
rain 24hr
in
rain mn
in
humidity
%
barometer
mb
20260506192507 58 0.0 0.0 0.01 0.09 0.09 89 1007.0
20260506192009 58 0.0 0.0 0.01 0.09 0.09 89 1006.9
20260506191522 58 0.0 0.0 0.01 0.09 0.09 89 1006.9
20260506191006 58 0.0 0.0 0.01 0.09 0.09 89 1007.0
20260506190507 58 0.0 0.0 0.02 0.09 0.09 88 1007.0
20260506190024 58 0.0 0.0 0.02 0.09 0.09 88 1007.2
20260506185507 58 0.0 0.0 0.02 0.09 0.09 88 1007.2
20260506185009 58 0.0 0.0 0.02 0.09 0.09 88 1007.1
20260506184529 58 0.0 0.0 0.02 0.09 0.09 88 1007.1
20260506184009 58 0.0 0.0 0.03 0.09 0.09 88 1007.2
20260506183505 58 0.0 0.0 0.03 0.09 0.09 88 1007.3
20260506183016 58 0.0 0.0 0.03 0.09 0.09 87 1007.2
20260506182503 58 0.0 0.0 0.03 0.08 0.08 87 1007.4
20260506182007 59 0.0 0.0 0.03 0.08 0.08 88 1007.4
20260506181521 59 0.0 0.0 0.04 0.08 0.08 88 1007.4
20260506181007 58 0.0 0.0 0.05 0.08 0.08 87 1007.4
20260506180509 58 0.0 0.0 0.04 0.07 0.07 87 1007.4
20260506180028 59 0.0 0.0 0.05 0.07 0.07 87 1007.2
20260506175505 59 0.0 0.0 0.06 0.07 0.07 86 1007.2
20260506175012 59 0.0 0.0 0.07 0.07 0.07 86 1007.3
20260506174524 59 0.0 0.0 0.07 0.07 0.07 86 1007.4
20260506174009 59 0.0 0.0 0.06 0.06 0.06 86 1007.3
20260506173512 59 0.0 0.0 0.06 0.06 0.06 86 1007.2
20260506173032 60 0.0 0.0 0.06 0.06 0.06 85 1007.4
20260506172503 60 0.0 0.0 0.05 0.05 0.05 86 1007.5
20260506172006 60 0.0 0.0 0.05 0.05 0.05 85 1007.6
20260506171517 60 0.0 0.0 0.04 0.04 0.04 85 1007.8
20260506171004 60 0.0 0.0 0.03 0.03 0.03 84 1008.2
20260506170507 60 0.0 0.0 0.03 0.03 0.03 84 1008.0
20260506170023 60 0.0 0.0 0.02 0.02 0.02 83 1008.3
20260506165508 61 0.0 0.0 0.01 0.01 0.01 82 1008.6
20260506165007 61 0.0 0.0 0.00 0.00 0.00 80 1008.7
20260506164526 62 0.0 0.0 0.00 0.00 0.00 79 1008.8
20260506164011 62 0.0 0.0 0.00 0.00 0.00 77 1008.5
20260506163506 63 0.0 0.0 0.00 0.00 0.00 75 1008.7
20260506163031 63 0.0 0.0 0.00 0.00 0.00 74 1008.6
20260506162510 64 0.0 0.0 0.00 0.00 0.00 74 1008.5
20260506162011 64 0.0 0.0 0.00 0.00 0.00 73 1008.5
20260506161518 64 0.0 0.0 0.00 0.00 0.00 75 1008.4
20260506161005 64 0.0 0.0 0.00 0.00 0.00 73 1008.4
20260506160510 64 0.0 0.0 0.00 0.00 0.00 71 1008.3
20260506160021 64 0.0 0.0 0.00 0.00 0.00 71 1008.5
20260506155506 64 0.0 0.0 0.00 0.00 0.00 71 1008.6
20260506155009 65 0.0 0.0 0.00 0.00 0.00 70 1008.7
20260506154527 65 0.0 0.0 0.00 0.00 0.00 70 1008.7
20260506154013 65 0.0 0.0 0.00 0.00 0.00 69 1008.9
20260506153514 65 0.0 0.0 0.00 0.00 0.00 71 1009.0
20260506153024 64 0.0 0.0 0.00 0.00 0.00 72 1009.1
20260506152508 64 0.0 0.0 0.00 0.00 0.00 71 1009.0
20260506152012 64 0.0 0.0 0.00 0.00 0.00 72 1008.9
20260506151529 64 0.0 0.0 0.00 0.00 0.00 71 1009.1
20260506151003 64 0.0 0.0 0.00 0.00 0.00 72 1009.1
20260506150504 64 0.0 0.0 0.00 0.00 0.00 72 1009.0
20260506150016 64 0.0 0.0 0.00 0.00 0.00 72 1009.1
20260506145506 64 0.0 0.0 0.00 0.00 0.00 71 1009.1
20260506145008 64 0.0 0.0 0.00 0.00 0.00 72 1009.1
20260506144505 64 0.0 0.0 0.00 0.00 0.00 71 1009.1
20260506144003 64 0.0 0.0 0.00 0.00 0.00 72 1009.1
20260506143503 64 0.0 0.0 0.00 0.00 0.00 72 1009.3
20260506143017 64 0.0 0.0 0.00 0.00 0.00 73 1009.3
20260506142506 64 0.0 0.0 0.00 0.00 0.00 72 1009.4
20260506142007 63 0.0 0.0 0.00 0.00 0.00 74 1009.4
20260506141512 63 0.0 0.0 0.00 0.00 0.00 73 1009.4
20260506141006 63 0.0 0.0 0.00 0.00 0.00 74 1009.3
20260506140503 63 0.0 0.0 0.00 0.00 0.00 75 1009.3
20260506140016 63 0.0 0.0 0.00 0.00 0.00 74 1009.2
20260506135507 63 0.0 0.0 0.00 0.00 0.00 76 1009.3
20260506135008 62 0.0 0.0 0.00 0.00 0.00 76 1009.3
20260506134520 62 0.0 0.0 0.00 0.00 0.00 76 1009.2
20260506134008 62 0.0 0.0 0.00 0.00 0.00 76 1009.3
20260506133504 61 0.0 0.0 0.00 0.00 0.00 78 1009.3
20260506133006 61 0.0 0.0 0.00 0.00 0.00 77 1009.1
20260506132506 61 0.0 0.0 0.00 0.00 0.00 77 1009.1
20260506132005 61 0.0 0.0 0.00 0.00 0.00 77 1009.0
20260506131510 61 0.0 0.0 0.00 0.00 0.00 78 1009.1
20260506131005 61 0.0 0.0 0.00 0.00 0.00 79 1009.1
20260506130506 60 0.0 0.0 0.00 0.00 0.00 80 1009.2
20260506130016 60 0.0 0.0 0.00 0.00 0.00 79 1009.3
20260506125505 60 0.0 0.0 0.00 0.00 0.00 80 1009.3
20260506125009 60 0.0 0.0 0.00 0.00 0.00 80 1009.3
20260506124520 59 0.0 0.0 0.00 0.00 0.00 79 1009.4
20260506124007 59 0.0 0.0 0.00 0.00 0.00 80 1009.3
20260506123504 59 0.0 0.0 0.00 0.00 0.00 80 1009.4
20260506123020 59 0.0 0.0 0.00 0.00 0.00 80 1009.7
20260506122504 59 0.0 0.0 0.00 0.00 0.00 81 1009.7
20260506122003 59 0.0 0.0 0.00 0.00 0.00 81 1009.7
20260506121510 59 0.0 0.0 0.00 0.00 0.00 81 1009.8
20260506121002 59 0.0 0.0 0.00 0.00 0.00 82 1009.7
20260506120502 58 0.0 0.0 0.00 0.00 0.00 82 1009.6
20260506120019 58 0.0 0.0 0.00 0.00 0.00 83 1009.7
20260506115511 58 0.0 0.0 0.00 0.00 0.00 83 1009.6
20260506115007 58 0.0 0.0 0.00 0.00 0.00 83 1009.6
20260506114517 58 0.0 0.0 0.00 0.00 0.00 83 1009.5
20260506114007 58 0.0 0.0 0.00 0.00 0.00 83 1009.7
20260506113506 57 0.0 0.0 0.00 0.00 0.00 83 1009.6
20260506113022 57 0.0 0.0 0.00 0.00 0.00 84 1009.6
20260506112505 57 0.0 0.0 0.00 0.00 0.00 84 1009.7
20260506112007 57 0.0 0.0 0.00 0.00 0.00 84 1009.9
20260506111507 57 0.0 0.0 0.00 0.00 0.00 85 1009.7
20260506111004 57 0.0 0.0 0.00 0.00 0.00 85 1009.6
20260506110504 56 0.0 0.0 0.00 0.00 0.00 85 1009.6
20260506110011 56 0.0 0.0 0.00 0.00 0.00 86 1009.6
20260506105504 56 0.0 0.0 0.00 0.00 0.00 86 1009.7
20260506105005 56 0.0 0.0 0.00 0.00 0.00 86 1009.8
20260506104518 56 0.0 0.0 0.00 0.00 0.00 86 1009.9
20260506104006 55 0.0 0.0 0.00 0.00 0.00 86 1009.8
20260506103504 55 0.0 0.0 0.00 0.00 0.00 85 1009.7
20260506103021 55 0.0 0.0 0.00 0.00 0.00 85 1009.5
20260506102507 55 0.0 0.0 0.00 0.00 0.00 85 1009.7
20260506102006 55 0.0 0.0 0.00 0.00 0.00 85 1009.7
20260506101539 55 0.0 0.0 0.00 0.00 0.00 85 1009.6
20260506101007 55 0.0 0.0 0.00 0.00 0.00 85 1009.4
20260506100505 55 0.0 0.0 0.00 0.00 0.00 84 1009.3
20260506100007 55 0.0 0.0 0.00 0.00 0.00 84 1009.4
20260506095506 55 0.0 0.0 0.00 0.00 0.00 84 1009.4
20260506095004 55 0.0 0.0 0.00 0.00 0.00 84 1009.4
20260506094521 55 0.0 0.0 0.00 0.00 0.00 83 1009.3
20260506094008 55 0.0 0.0 0.00 0.00 0.00 83 1009.3
20260506093506 55 0.0 0.0 0.00 0.00 0.00 83 1009.3
20260506093023 55 0.0 0.0 0.00 0.00 0.00 83 1009.3
20260506092506 55 0.0 0.0 0.00 0.00 0.00 82 1009.4
20260506092013 55 0.0 0.0 0.00 0.00 0.00 82 1009.4
20260506091525 55 0.0 0.0 0.00 0.00 0.00 82 1009.4
20260506091007 55 0.0 0.0 0.00 0.00 0.00 82 1009.4
20260506090506 56 0.0 0.0 0.00 0.00 0.00 82 1009.4
20260506090026 56 0.0 0.0 0.00 0.00 0.00 81 1009.4
20260506085506 56 0.0 0.0 0.00 0.00 0.00 81 1009.3
20260506085004 56 0.0 0.0 0.00 0.00 0.00 81 1009.4
20260506084511 56 0.0 0.0 0.00 0.00 0.00 81 1009.5
20260506084004 56 0.0 0.0 0.00 0.00 0.00 81 1009.5
20260506083505 56 0.0 0.0 0.00 0.00 0.00 80 1009.4
20260506083018 56 0.0 0.0 0.00 0.00 0.00 80 1009.4
20260506082508 56 0.0 0.0 0.00 0.00 0.00 80 1009.5
20260506082006 56 0.0 0.0 0.00 0.00 0.00 80 1009.6
20260506081528 56 0.0 0.0 0.00 0.00 0.00 80 1009.5
20260506081006 56 0.0 0.0 0.00 0.00 0.00 79 1009.5
20260506080510 57 0.0 0.0 0.00 0.00 0.00 79 1009.4
20260506073504 57 0.0 0.0 0.00 0.00 0.00 79 1009.5
20260506073030 57 0.0 0.0 0.00 0.00 0.00 79 1009.5
20260506072504 57 0.0 0.0 0.00 0.00 0.00 79 1009.6
20260506072008 57 0.0 0.0 0.00 0.00 0.00 79 1009.6
20260506071520 57 0.0 0.0 0.00 0.00 0.00 78 1009.5
20260506071010 57 0.0 0.0 0.00 0.00 0.00 78 1009.6
20260506070506 57 0.0 0.0 0.00 0.00 0.00 78 1009.6
20260506062505 57 0.0 0.0 0.00 0.00 0.00 75 1009.5
20260506062006 58 0.0 0.0 0.00 0.00 0.00 74 1009.5
20260506061516 58 0.0 0.0 0.00 0.00 0.00 74 1009.6
20260506061006 58 0.0 0.0 0.00 0.00 0.00 73 1009.5
20260506060506 58 0.0 0.0 0.00 0.00 0.00 73 1009.6
20260506051005 60 0.0 0.0 0.00 0.00 0.00 70 1010.1
20260506050506 60 0.0 0.0 0.00 0.00 0.00 69 1010.1
20260506045007 60 0.0 0.0 0.00 0.00 0.00 69 1010.0
20260506044550 60 0.0 0.0 0.00 0.00 0.00 68 1010.0
20260506044009 60 0.0 0.0 0.00 0.00 0.00 68 1010.1
20260506043510 60 0.0 0.0 0.00 0.00 0.00 68 1010.2
20260506043026 60 0.0 0.0 0.00 0.00 0.00 68 1010.2
20260506042509 60 0.0 0.0 0.00 0.00 0.00 68 1010.1
20260506042012 61 0.0 0.0 0.00 0.00 0.00 67 1010.2
20260506041527 61 0.0 0.0 0.00 0.00 0.00 67 1010.1
20260506041012 61 0.0 0.0 0.00 0.00 0.00 68 1010.1
20260506040507 61 0.0 0.0 0.00 0.00 0.00 67 1010.1
20260506040017 61 0.0 0.0 0.00 0.00 0.00 66 1010.2
20260506035506 61 0.0 0.0 0.00 0.00 0.00 66 1010.1
20260506035007 61 0.0 0.0 0.00 0.00 0.00 66 1010.2
20260506034543 61 0.0 0.0 0.00 0.00 0.00 66 1010.2
20260506034008 61 0.0 0.0 0.00 0.00 0.00 66 1010.1
20260506033506 61 0.0 0.0 0.00 0.00 0.00 66 1010.2
20260506033025 61 0.0 0.0 0.00 0.00 0.00 66 1010.2
20260506032507 61 0.0 0.0 0.00 0.00 0.00 66 1010.2
20260506032008 61 0.0 0.0 0.00 0.00 0.00 66 1010.2
20260506031528 61 0.0 0.0 0.00 0.00 0.00 65 1010.1
20260506031008 61 0.0 0.0 0.00 0.00 0.00 65 1010.2
20260506030510 61 0.0 0.0 0.00 0.00 0.00 65 1010.2
20260506030028 62 0.0 0.0 0.00 0.00 0.00 64 1010.1
20260506025512 61 0.0 0.0 0.00 0.00 0.00 64 1010.2
20260506025004 61 0.0 0.0 0.00 0.00 0.00 64 1010.1
20260506024520 62 0.0 0.0 0.00 0.00 0.00 64 1010.1
20260506024011 62 0.0 0.0 0.00 0.00 0.00 64 1010.0
20260506023513 62 0.0 0.0 0.00 0.00 0.00 64 1009.9
20260506023025 62 0.0 0.0 0.00 0.00 0.00 63 1009.9
20260506022510 62 0.0 0.0 0.00 0.00 0.00 63 1009.9
20260506022006 62 0.0 0.0 0.00 0.00 0.00 63 1010.0
20260506021525 62 0.0 0.0 0.00 0.00 0.00 63 1010.0
20260506021009 62 0.0 0.0 0.00 0.00 0.00 63 1010.1
20260506020510 62 0.0 0.0 0.00 0.00 0.00 63 1010.0
20260506020026 62 0.0 0.0 0.00 0.00 0.00 63 1009.9
20260506015510 62 0.0 0.0 0.00 0.00 0.00 62 1009.9
20260506015011 63 0.0 0.0 0.00 0.00 0.00 62 1010.0
20260506014531 63 0.0 0.0 0.00 0.00 0.00 61 1010.0
20260506014007 63 0.0 0.0 0.00 0.00 0.00 62 1009.8
20260506013505 63 0.0 0.0 0.00 0.00 0.00 62 1009.7
20260506013023 63 0.0 0.0 0.00 0.00 0.00 62 1009.7
20260506012509 63 0.0 0.0 0.00 0.00 0.00 62 1009.6
20260506012010 63 0.0 0.0 0.00 0.00 0.00 62 1009.6
20260506011527 63 0.0 0.0 0.00 0.00 0.00 61 1009.5
20260506011009 63 0.0 0.0 0.00 0.00 0.00 61 1009.5
20260506010507 63 0.0 0.0 0.00 0.00 0.00 61 1009.5
20260506010027 64 0.0 0.0 0.00 0.00 0.00 60 1009.4
20260506005503 64 0.0 0.0 0.00 0.00 0.00 60 1009.3
20260506005007 64 0.0 0.0 0.00 0.00 0.00 60 1009.3
20260506004531 64 0.0 0.0 0.00 0.00 0.00 60 1009.3
20260506004008 64 0.0 0.0 0.00 0.00 0.00 60 1009.1
20260506003507 64 0.0 0.0 0.00 0.00 0.00 60 1009.1
20260506003035 64 0.0 0.0 0.00 0.00 0.00 59 1009.0
20260506002508 64 0.0 0.0 0.00 0.00 0.00 59 1009.0
20260506002012 65 0.0 0.0 0.00 0.00 0.00 59 1008.9
20260506001523 65 0.0 0.0 0.00 0.00 0.00 59 1008.9
20260506001007 65 0.0 0.0 0.00 0.00 0.00 58 1008.8
20260506000507 65 0.0 0.0 0.00 0.00 0.00 58 1008.6
20260506000027 65 0.0 0.0 0.00 0.00 0.00 58 1008.6
20260505235508 65 0.0 0.0 0.00 0.00 0.00 57 1008.5
20260505235011 65 0.0 0.0 0.00 0.00 0.00 57 1008.5
20260505234525 66 0.0 0.0 0.00 0.00 0.00 56 1008.5
20260505234009 66 0.0 0.0 0.00 0.00 0.00 55 1008.4
20260505233510 66 0.0 0.0 0.00 0.00 0.00 56 1008.4
20260505233019 67 0.0 0.0 0.00 0.00 0.00 55 1008.3
20260505232508 67 0.0 0.0 0.00 0.00 0.00 56 1008.3
20260505232007 67 0.0 0.0 0.00 0.00 0.00 55 1008.2
20260505231525 67 0.0 0.0 0.00 0.00 0.00 54 1008.1
20260505231007 68 0.0 0.0 0.00 0.00 0.00 54 1008.1
20260505230506 68 0.0 0.0 0.00 0.00 0.00 53 1008.0
20260505230035 69 0.0 0.0 0.00 0.00 0.00 52 1008.0
20260505225517 69 0.0 0.0 0.00 0.00 0.00 53 1007.9
20260505225008 69 0.0 0.0 0.00 0.00 0.00 53 1008.0
20260505224530 70 0.0 0.0 0.00 0.00 0.00 51 1007.9
20260505224009 70 0.0 0.0 0.00 0.00 0.00 51 1007.8
20260505223506 71 0.0 0.0 0.00 0.00 0.00 50 1007.8
20260505223018 71 0.0 0.0 0.00 0.00 0.00 48 1007.6
20260505222508 72 0.0 0.0 0.00 0.00 0.00 47 1007.6
20260505222006 72 0.0 0.0 0.00 0.00 0.00 46 1007.3
20260505221524 73 0.0 0.0 0.00 0.00 0.00 47 1007.3
20260505221006 73 0.0 0.0 0.00 0.00 0.00 48 1007.3
20260505220508 73 0.0 0.0 0.00 0.00 0.00 46 1007.3
20260505220038 73 0.0 0.0 0.00 0.00 0.00 48 1007.5
20260505215502 73 0.0 0.0 0.00 0.00 0.00 47 1007.5
20260505215003 73 0.0 0.0 0.00 0.00 0.00 46 1007.5
20260505214516 73 0.0 0.0 0.00 0.00 0.00 46 1007.6
20260505214003 74 0.0 0.0 0.00 0.00 0.00 44 1007.6
20260505213508 74 0.0 0.0 0.00 0.00 0.00 45 1007.6
20260505213016 74 0.0 0.0 0.00 0.00 0.00 44 1007.6
20260505212512 75 0.0 0.0 0.00 0.00 0.00 44 1007.6
20260505212012 74 0.0 0.0 0.00 0.00 0.00 45 1007.5
20260505211522 74 0.0 0.0 0.00 0.00 0.00 47 1007.4
20260505211006 74 0.0 0.0 0.00 0.00 0.00 45 1007.4
20260505210506 74 0.0 0.0 0.00 0.00 0.00 44 1007.3
20260505210026 74 0.0 0.0 0.00 0.00 0.00 49 1007.4
20260505205508 74 0.0 0.0 0.00 0.00 0.00 44 1007.3
20260505205010 74 0.0 0.0 0.00 0.00 0.00 47 1007.4
20260505204507 75 0.0 0.0 0.00 0.00 0.00 44 1007.3
20260505204006 75 0.0 0.0 0.00 0.00 0.00 43 1007.2
20260505203504 76 0.0 0.0 0.00 0.00 0.00 43 1007.2
20260505203014 76 0.0 0.0 0.00 0.00 0.00 44 1007.2
20260505202505 76 0.0 0.0 0.00 0.00 0.00 42 1007.2
20260505202009 77 0.0 0.0 0.00 0.00 0.00 41 1007.1
20260505201523 77 0.0 0.0 0.00 0.00 0.00 40 1007.2
20260505201008 77 0.0 0.0 0.00 0.00 0.00 48 1007.2
20260505200510 77 0.0 0.0 0.00 0.00 0.00 42 1007.1
20260505200021 77 0.0 0.0 0.00 0.00 0.00 43 1007.3
20260505195506 77 0.0 0.0 0.00 0.00 0.00 43 1007.4
20260505195016 77 0.0 0.0 0.00 0.00 0.00 41 1007.4
20260505194534 77 0.0 0.0 0.00 0.00 0.00 41 1007.5
20260505194011 78 0.0 0.0 0.00 0.00 0.00 40 1007.4
20260505193502 78 0.0 0.0 0.00 0.00 0.00 40 1007.5
20260505193031 78 0.0 0.0 0.00 0.00 0.00 41 1007.2